sensor_id;sensor_type;location;lat;lon;timestamp;P1;durP1;ratioP1;P2;durP2;ratioP2
19848;SDS011;10085;51.120;6.956;2022-12-05T00:00:34;14.35;;;6.72;;
19848;SDS011;10085;51.120;6.956;2022-12-05T00:05:40;14.90;;;6.90;;
19848;SDS011;10085;51.120;6.956;2022-12-05T00:10:42;13.73;;;6.93;;
19848;SDS011;10085;51.120;6.956;2022-12-05T00:15:45;15.13;;;7.20;;
19848;SDS011;10085;51.120;6.956;2022-12-05T00:20:49;18.80;;;7.72;;
19848;SDS011;10085;51.120;6.956;2022-12-05T00:25:52;16.23;;;7.47;;
19848;SDS011;10085;51.120;6.956;2022-12-05T00:30:55;14.85;;;6.82;;
19848;SDS011;10085;51.120;6.956;2022-12-05T00:36:01;15.75;;;7.57;;
19848;SDS011;10085;51.120;6.956;2022-12-05T00:41:05;15.93;;;7.90;;
19848;SDS011;10085;51.120;6.956;2022-12-05T00:46:10;17.27;;;7.50;;
19848;SDS011;10085;51.120;6.956;2022-12-05T00:51:16;16.88;;;7.93;;
19848;SDS011;10085;51.120;6.956;2022-12-05T00:56:20;15.55;;;7.32;;
19848;SDS011;10085;51.120;6.956;2022-12-05T01:01:25;18.08;;;8.63;;
19848;SDS011;10085;51.120;6.956;2022-12-05T01:06:31;17.98;;;8.25;;
19848;SDS011;10085;51.120;6.956;2022-12-05T01:11:34;19.58;;;8.60;;
19848;SDS011;10085;51.120;6.956;2022-12-05T01:16:42;19.25;;;8.45;;
19848;SDS011;10085;51.120;6.956;2022-12-05T01:21:48;16.88;;;8.32;;
19848;SDS011;10085;51.120;6.956;2022-12-05T01:26:51;18.83;;;8.18;;
19848;SDS011;10085;51.120;6.956;2022-12-05T01:31:54;18.55;;;8.50;;
19848;SDS011;10085;51.120;6.956;2022-12-05T01:36:58;18.55;;;8.90;;
19848;SDS011;10085;51.120;6.956;2022-12-05T01:42:01;19.10;;;8.77;;
19848;SDS011;10085;51.120;6.956;2022-12-05T01:47:06;17.15;;;7.90;;
19848;SDS011;10085;51.120;6.956;2022-12-05T01:52:22;16.80;;;8.52;;
19848;SDS011;10085;51.120;6.956;2022-12-05T01:57:26;17.92;;;8.63;;
19848;SDS011;10085;51.120;6.956;2022-12-05T02:02:29;19.00;;;8.82;;
19848;SDS011;10085;51.120;6.956;2022-12-05T02:07:35;19.00;;;8.80;;
19848;SDS011;10085;51.120;6.956;2022-12-05T02:12:40;17.48;;;8.40;;
19848;SDS011;10085;51.120;6.956;2022-12-05T02:17:47;16.33;;;8.13;;
19848;SDS011;10085;51.120;6.956;2022-12-05T02:23:01;20.27;;;9.10;;
19848;SDS011;10085;51.120;6.956;2022-12-05T02:28:34;21.17;;;9.30;;
19848;SDS011;10085;51.120;6.956;2022-12-05T02:34:01;18.00;;;8.88;;
19848;SDS011;10085;51.120;6.956;2022-12-05T02:39:10;19.55;;;9.10;;
19848;SDS011;10085;51.120;6.956;2022-12-05T02:44:16;18.60;;;8.95;;
19848;SDS011;10085;51.120;6.956;2022-12-05T02:49:22;19.40;;;8.98;;
19848;SDS011;10085;51.120;6.956;2022-12-05T02:54:28;21.00;;;9.02;;
19848;SDS011;10085;51.120;6.956;2022-12-05T02:59:33;17.77;;;8.90;;
19848;SDS011;10085;51.120;6.956;2022-12-05T03:04:37;17.98;;;8.55;;
19848;SDS011;10085;51.120;6.956;2022-12-05T03:09:40;19.50;;;8.55;;
19848;SDS011;10085;51.120;6.956;2022-12-05T03:14:46;20.58;;;8.90;;
19848;SDS011;10085;51.120;6.956;2022-12-05T03:19:56;21.67;;;9.82;;
19848;SDS011;10085;51.120;6.956;2022-12-05T03:25:00;19.23;;;8.90;;
19848;SDS011;10085;51.120;6.956;2022-12-05T03:30:05;20.85;;;9.23;;
19848;SDS011;10085;51.120;6.956;2022-12-05T03:35:11;18.30;;;8.70;;
19848;SDS011;10085;51.120;6.956;2022-12-05T03:40:20;18.90;;;9.05;;
19848;SDS011;10085;51.120;6.956;2022-12-05T03:45:30;17.60;;;8.18;;
19848;SDS011;10085;51.120;6.956;2022-12-05T03:50:38;19.17;;;9.00;;
19848;SDS011;10085;51.120;6.956;2022-12-05T03:55:43;19.65;;;8.68;;
19848;SDS011;10085;51.120;6.956;2022-12-05T04:00:48;21.40;;;8.80;;
19848;SDS011;10085;51.120;6.956;2022-12-05T04:05:55;19.25;;;8.95;;
19848;SDS011;10085;51.120;6.956;2022-12-05T04:10:59;18.10;;;9.18;;
19848;SDS011;10085;51.120;6.956;2022-12-05T04:16:06;20.73;;;9.35;;
19848;SDS011;10085;51.120;6.956;2022-12-05T04:21:32;19.35;;;9.25;;
19848;SDS011;10085;51.120;6.956;2022-12-05T04:26:42;20.73;;;9.90;;
19848;SDS011;10085;51.120;6.956;2022-12-05T04:31:48;20.35;;;9.45;;
19848;SDS011;10085;51.120;6.956;2022-12-05T04:36:55;19.23;;;9.43;;
19848;SDS011;10085;51.120;6.956;2022-12-05T04:42:01;17.75;;;8.68;;
19848;SDS011;10085;51.120;6.956;2022-12-05T04:47:07;22.05;;;10.00;;
19848;SDS011;10085;51.120;6.956;2022-12-05T04:52:12;18.48;;;9.07;;
19848;SDS011;10085;51.120;6.956;2022-12-05T04:57:16;19.35;;;9.00;;
19848;SDS011;10085;51.120;6.956;2022-12-05T05:02:23;20.88;;;9.57;;
19848;SDS011;10085;51.120;6.956;2022-12-05T05:07:30;19.42;;;9.30;;
19848;SDS011;10085;51.120;6.956;2022-12-05T05:12:33;18.60;;;9.30;;
19848;SDS011;10085;51.120;6.956;2022-12-05T05:17:36;20.38;;;9.90;;
19848;SDS011;10085;51.120;6.956;2022-12-05T05:22:40;18.80;;;9.25;;
19848;SDS011;10085;51.120;6.956;2022-12-05T05:27:46;22.08;;;10.15;;
19848;SDS011;10085;51.120;6.956;2022-12-05T05:32:49;18.85;;;9.20;;
19848;SDS011;10085;51.120;6.956;2022-12-05T05:37:54;18.50;;;8.88;;
19848;SDS011;10085;51.120;6.956;2022-12-05T05:42:56;19.52;;;9.45;;
19848;SDS011;10085;51.120;6.956;2022-12-05T05:47:59;18.95;;;9.25;;
19848;SDS011;10085;51.120;6.956;2022-12-05T05:53:03;20.08;;;9.70;;
19848;SDS011;10085;51.120;6.956;2022-12-05T05:58:06;20.42;;;10.00;;
19848;SDS011;10085;51.120;6.956;2022-12-05T06:03:08;18.98;;;9.27;;
19848;SDS011;10085;51.120;6.956;2022-12-05T06:08:13;21.17;;;9.95;;
19848;SDS011;10085;51.120;6.956;2022-12-05T06:13:15;18.63;;;9.23;;
19848;SDS011;10085;51.120;6.956;2022-12-05T06:18:18;19.40;;;9.30;;
19848;SDS011;10085;51.120;6.956;2022-12-05T06:23:23;19.63;;;9.75;;
19848;SDS011;10085;51.120;6.956;2022-12-05T06:28:26;20.65;;;9.18;;
19848;SDS011;10085;51.120;6.956;2022-12-05T06:33:28;20.20;;;8.93;;
19848;SDS011;10085;51.120;6.956;2022-12-05T06:38:32;19.70;;;8.70;;
19848;SDS011;10085;51.120;6.956;2022-12-05T06:43:42;19.73;;;9.18;;
19848;SDS011;10085;51.120;6.956;2022-12-05T06:48:45;19.98;;;9.65;;
19848;SDS011;10085;51.120;6.956;2022-12-05T06:53:49;20.27;;;8.90;;
19848;SDS011;10085;51.120;6.956;2022-12-05T06:58:52;19.17;;;9.13;;
19848;SDS011;10085;51.120;6.956;2022-12-05T07:03:55;18.42;;;8.90;;
19848;SDS011;10085;51.120;6.956;2022-12-05T07:09:00;18.50;;;8.93;;
19848;SDS011;10085;51.120;6.956;2022-12-05T07:14:03;18.95;;;9.13;;
19848;SDS011;10085;51.120;6.956;2022-12-05T07:19:19;15.55;;;8.43;;
19848;SDS011;10085;51.120;6.956;2022-12-05T07:24:23;17.20;;;8.90;;
19848;SDS011;10085;51.120;6.956;2022-12-05T07:29:26;18.67;;;9.25;;
19848;SDS011;10085;51.120;6.956;2022-12-05T07:34:28;16.55;;;8.52;;
19848;SDS011;10085;51.120;6.956;2022-12-05T07:39:33;17.20;;;8.90;;
19848;SDS011;10085;51.120;6.956;2022-12-05T07:44:35;16.35;;;8.13;;
19848;SDS011;10085;51.120;6.956;2022-12-05T07:49:38;15.60;;;8.23;;
19848;SDS011;10085;51.120;6.956;2022-12-05T07:54:42;16.27;;;8.07;;
19848;SDS011;10085;51.120;6.956;2022-12-05T07:59:45;15.80;;;8.18;;
19848;SDS011;10085;51.120;6.956;2022-12-05T08:04:47;15.30;;;8.18;;
19848;SDS011;10085;51.120;6.956;2022-12-05T08:09:52;14.07;;;7.78;;
19848;SDS011;10085;51.120;6.956;2022-12-05T08:14:54;15.73;;;7.95;;
19848;SDS011;10085;51.120;6.956;2022-12-05T08:19:57;14.82;;;7.85;;
19848;SDS011;10085;51.120;6.956;2022-12-05T08:25:01;15.32;;;8.18;;
19848;SDS011;10085;51.120;6.956;2022-12-05T08:30:05;16.20;;;8.20;;
19848;SDS011;10085;51.120;6.956;2022-12-05T08:35:08;13.73;;;7.75;;
19848;SDS011;10085;51.120;6.956;2022-12-05T08:40:12;14.90;;;7.70;;
19848;SDS011;10085;51.120;6.956;2022-12-05T08:45:15;13.82;;;8.10;;
19848;SDS011;10085;51.120;6.956;2022-12-05T08:50:18;15.23;;;8.00;;
19848;SDS011;10085;51.120;6.956;2022-12-05T08:55:22;13.82;;;7.93;;
19848;SDS011;10085;51.120;6.956;2022-12-05T09:00:24;13.80;;;7.80;;
19848;SDS011;10085;51.120;6.956;2022-12-05T09:05:27;15.73;;;8.20;;
19848;SDS011;10085;51.120;6.956;2022-12-05T09:10:32;16.83;;;8.05;;
19848;SDS011;10085;51.120;6.956;2022-12-05T09:15:36;18.33;;;8.00;;
19848;SDS011;10085;51.120;6.956;2022-12-05T09:20:39;17.70;;;8.63;;
19848;SDS011;10085;51.120;6.956;2022-12-05T09:25:44;17.52;;;8.40;;
19848;SDS011;10085;51.120;6.956;2022-12-05T09:30:54;19.20;;;8.85;;
19848;SDS011;10085;51.120;6.956;2022-12-05T09:35:57;19.17;;;8.45;;
19848;SDS011;10085;51.120;6.956;2022-12-05T09:41:04;17.95;;;8.20;;
19848;SDS011;10085;51.120;6.956;2022-12-05T09:46:14;16.50;;;8.18;;
19848;SDS011;10085;51.120;6.956;2022-12-05T09:51:21;18.95;;;8.05;;
19848;SDS011;10085;51.120;6.956;2022-12-05T09:56:26;17.35;;;8.00;;
19848;SDS011;10085;51.120;6.956;2022-12-05T10:01:32;15.35;;;8.00;;
19848;SDS011;10085;51.120;6.956;2022-12-05T10:06:43;14.25;;;8.18;;
19848;SDS011;10085;51.120;6.956;2022-12-05T10:11:52;12.88;;;7.40;;
19848;SDS011;10085;51.120;6.956;2022-12-05T10:16:58;17.45;;;8.60;;
19848;SDS011;10085;51.120;6.956;2022-12-05T10:22:09;18.38;;;8.25;;
19848;SDS011;10085;51.120;6.956;2022-12-05T10:27:23;14.10;;;7.93;;
19848;SDS011;10085;51.120;6.956;2022-12-05T10:32:34;13.15;;;7.78;;
19848;SDS011;10085;51.120;6.956;2022-12-05T10:37:38;15.85;;;8.23;;
19848;SDS011;10085;51.120;6.956;2022-12-05T10:42:44;15.40;;;7.65;;
19848;SDS011;10085;51.120;6.956;2022-12-05T10:47:48;14.85;;;7.63;;
19848;SDS011;10085;51.120;6.956;2022-12-05T10:52:54;16.65;;;8.02;;
19848;SDS011;10085;51.120;6.956;2022-12-05T10:58:09;15.00;;;7.60;;
19848;SDS011;10085;51.120;6.956;2022-12-05T11:03:22;18.23;;;8.15;;
19848;SDS011;10085;51.120;6.956;2022-12-05T11:08:27;15.07;;;7.78;;
19848;SDS011;10085;51.120;6.956;2022-12-05T11:13:53;13.88;;;7.75;;
19848;SDS011;10085;51.120;6.956;2022-12-05T11:19:01;14.57;;;7.72;;
19848;SDS011;10085;51.120;6.956;2022-12-05T11:24:20;13.90;;;7.80;;
19848;SDS011;10085;51.120;6.956;2022-12-05T11:29:33;14.60;;;6.85;;
19848;SDS011;10085;51.120;6.956;2022-12-05T11:34:38;13.00;;;7.18;;
19848;SDS011;10085;51.120;6.956;2022-12-05T11:39:43;12.63;;;7.28;;
19848;SDS011;10085;51.120;6.956;2022-12-05T11:50:30;12.70;;;7.13;;
19848;SDS011;10085;51.120;6.956;2022-12-05T11:55:38;13.80;;;7.35;;
19848;SDS011;10085;51.120;6.956;2022-12-05T12:00:48;16.65;;;7.55;;
19848;SDS011;10085;51.120;6.956;2022-12-05T12:06:05;12.52;;;6.85;;
19848;SDS011;10085;51.120;6.956;2022-12-05T12:11:18;12.85;;;6.75;;
19848;SDS011;10085;51.120;6.956;2022-12-05T12:16:30;13.25;;;7.38;;
19848;SDS011;10085;51.120;6.956;2022-12-05T12:21:40;12.00;;;6.63;;
19848;SDS011;10085;51.120;6.956;2022-12-05T12:26:55;10.90;;;6.82;;
19848;SDS011;10085;51.120;6.956;2022-12-05T12:32:10;11.88;;;7.03;;
19848;SDS011;10085;51.120;6.956;2022-12-05T12:37:23;15.27;;;6.88;;
19848;SDS011;10085;51.120;6.956;2022-12-05T12:42:29;10.55;;;6.60;;
19848;SDS011;10085;51.120;6.956;2022-12-05T12:47:40;12.35;;;6.90;;
19848;SDS011;10085;51.120;6.956;2022-12-05T12:53:05;12.07;;;7.07;;
19848;SDS011;10085;51.120;6.956;2022-12-05T12:58:25;10.70;;;6.90;;
19848;SDS011;10085;51.120;6.956;2022-12-05T13:03:40;10.38;;;6.65;;
19848;SDS011;10085;51.120;6.956;2022-12-05T13:08:52;11.75;;;6.65;;
19848;SDS011;10085;51.120;6.956;2022-12-05T13:13:57;10.45;;;6.20;;
19848;SDS011;10085;51.120;6.956;2022-12-05T13:19:03;11.00;;;6.57;;
19848;SDS011;10085;51.120;6.956;2022-12-05T13:24:09;11.15;;;6.60;;
19848;SDS011;10085;51.120;6.956;2022-12-05T13:29:17;10.98;;;6.60;;
19848;SDS011;10085;51.120;6.956;2022-12-05T13:39:48;10.57;;;6.53;;
19848;SDS011;10085;51.120;6.956;2022-12-05T13:45:10;11.73;;;7.00;;
19848;SDS011;10085;51.120;6.956;2022-12-05T13:50:19;11.40;;;6.53;;
19848;SDS011;10085;51.120;6.956;2022-12-05T13:55:27;10.60;;;6.60;;
19848;SDS011;10085;51.120;6.956;2022-12-05T14:00:36;12.27;;;6.85;;
19848;SDS011;10085;51.120;6.956;2022-12-05T14:05:44;9.23;;;6.03;;
19848;SDS011;10085;51.120;6.956;2022-12-05T14:11:07;10.27;;;6.60;;
19848;SDS011;10085;51.120;6.956;2022-12-05T14:21:49;9.68;;;6.05;;
19848;SDS011;10085;51.120;6.956;2022-12-05T14:26:57;10.25;;;6.75;;
19848;SDS011;10085;51.120;6.956;2022-12-05T14:32:10;9.98;;;6.60;;
19848;SDS011;10085;51.120;6.956;2022-12-05T14:37:23;10.85;;;6.68;;
19848;SDS011;10085;51.120;6.956;2022-12-05T14:42:31;10.20;;;6.30;;
19848;SDS011;10085;51.120;6.956;2022-12-05T14:47:36;9.68;;;6.03;;
19848;SDS011;10085;51.120;6.956;2022-12-05T14:52:41;10.23;;;6.15;;
19848;SDS011;10085;51.120;6.956;2022-12-05T14:57:46;10.63;;;6.43;;
19848;SDS011;10085;51.120;6.956;2022-12-05T15:02:50;9.57;;;6.15;;
19848;SDS011;10085;51.120;6.956;2022-12-05T15:07:57;11.73;;;6.70;;
19848;SDS011;10085;51.120;6.956;2022-12-05T15:13:02;10.18;;;6.15;;
19848;SDS011;10085;51.120;6.956;2022-12-05T15:18:08;10.57;;;6.13;;
19848;SDS011;10085;51.120;6.956;2022-12-05T15:29:01;8.95;;;6.10;;
19848;SDS011;10085;51.120;6.956;2022-12-05T15:34:11;10.95;;;6.35;;
19848;SDS011;10085;51.120;6.956;2022-12-05T15:39:19;9.25;;;5.90;;
19848;SDS011;10085;51.120;6.956;2022-12-05T15:44:27;9.50;;;6.35;;
19848;SDS011;10085;51.120;6.956;2022-12-05T15:49:38;9.68;;;5.95;;
19848;SDS011;10085;51.120;6.956;2022-12-05T15:54:42;11.25;;;6.55;;
19848;SDS011;10085;51.120;6.956;2022-12-05T15:59:46;9.00;;;6.18;;
19848;SDS011;10085;51.120;6.956;2022-12-05T16:04:51;9.13;;;5.90;;
19848;SDS011;10085;51.120;6.956;2022-12-05T16:09:57;8.82;;;5.93;;
19848;SDS011;10085;51.120;6.956;2022-12-05T16:15:02;8.75;;;5.70;;
19848;SDS011;10085;51.120;6.956;2022-12-05T16:20:11;9.13;;;5.80;;
19848;SDS011;10085;51.120;6.956;2022-12-05T16:25:23;10.38;;;5.97;;
19848;SDS011;10085;51.120;6.956;2022-12-05T16:30:27;10.13;;;5.60;;
19848;SDS011;10085;51.120;6.956;2022-12-05T16:35:32;8.57;;;5.65;;
19848;SDS011;10085;51.120;6.956;2022-12-05T16:40:38;9.10;;;6.03;;
19848;SDS011;10085;51.120;6.956;2022-12-05T16:45:42;9.40;;;5.60;;
19848;SDS011;10085;51.120;6.956;2022-12-05T16:50:45;9.52;;;5.68;;
19848;SDS011;10085;51.120;6.956;2022-12-05T16:55:50;8.80;;;5.28;;
19848;SDS011;10085;51.120;6.956;2022-12-05T17:00:57;8.38;;;5.65;;
19848;SDS011;10085;51.120;6.956;2022-12-05T17:06:02;9.10;;;6.20;;
19848;SDS011;10085;51.120;6.956;2022-12-05T17:11:07;10.70;;;6.10;;
19848;SDS011;10085;51.120;6.956;2022-12-05T17:16:11;12.13;;;7.00;;
19848;SDS011;10085;51.120;6.956;2022-12-05T17:21:15;18.88;;;8.45;;
19848;SDS011;10085;51.120;6.956;2022-12-05T17:26:20;19.45;;;9.02;;
19848;SDS011;10085;51.120;6.956;2022-12-05T17:31:23;21.83;;;9.68;;
19848;SDS011;10085;51.120;6.956;2022-12-05T17:36:26;21.02;;;9.93;;
19848;SDS011;10085;51.120;6.956;2022-12-05T17:41:31;21.25;;;9.88;;
19848;SDS011;10085;51.120;6.956;2022-12-05T17:46:33;24.85;;;11.15;;
19848;SDS011;10085;51.120;6.956;2022-12-05T17:51:36;26.88;;;10.57;;
19848;SDS011;10085;51.120;6.956;2022-12-05T17:57:00;22.40;;;10.25;;
19848;SDS011;10085;51.120;6.956;2022-12-05T18:02:03;22.17;;;10.32;;
19848;SDS011;10085;51.120;6.956;2022-12-05T18:07:06;25.23;;;10.68;;
19848;SDS011;10085;51.120;6.956;2022-12-05T18:12:10;22.80;;;10.30;;
19848;SDS011;10085;51.120;6.956;2022-12-05T18:17:13;23.88;;;10.10;;
19848;SDS011;10085;51.120;6.956;2022-12-05T18:22:16;22.17;;;10.07;;
19848;SDS011;10085;51.120;6.956;2022-12-05T18:27:23;22.00;;;10.07;;
19848;SDS011;10085;51.120;6.956;2022-12-05T18:32:26;23.77;;;10.07;;
19848;SDS011;10085;51.120;6.956;2022-12-05T18:37:29;20.45;;;9.65;;
19848;SDS011;10085;51.120;6.956;2022-12-05T18:42:35;19.50;;;9.20;;
19848;SDS011;10085;51.120;6.956;2022-12-05T18:47:38;18.65;;;9.10;;
19848;SDS011;10085;51.120;6.956;2022-12-05T18:52:40;19.90;;;8.93;;
19848;SDS011;10085;51.120;6.956;2022-12-05T18:57:44;19.42;;;9.45;;
19848;SDS011;10085;51.120;6.956;2022-12-05T19:02:47;17.77;;;8.68;;
19848;SDS011;10085;51.120;6.956;2022-12-05T19:08:30;16.05;;;8.30;;
19848;SDS011;10085;51.120;6.956;2022-12-05T19:19:16;18.23;;;8.75;;
19848;SDS011;10085;51.120;6.956;2022-12-05T19:24:19;16.40;;;7.68;;
19848;SDS011;10085;51.120;6.956;2022-12-05T19:29:23;14.07;;;7.43;;
19848;SDS011;10085;51.120;6.956;2022-12-05T19:34:26;18.90;;;8.10;;
19848;SDS011;10085;51.120;6.956;2022-12-05T19:39:28;14.35;;;7.35;;
19848;SDS011;10085;51.120;6.956;2022-12-05T19:44:32;13.75;;;7.85;;
19848;SDS011;10085;51.120;6.956;2022-12-05T19:49:35;15.18;;;7.40;;
19848;SDS011;10085;51.120;6.956;2022-12-05T19:54:38;12.82;;;7.28;;
19848;SDS011;10085;51.120;6.956;2022-12-05T19:59:42;12.68;;;6.93;;
19848;SDS011;10085;51.120;6.956;2022-12-05T20:04:45;10.35;;;6.65;;
19848;SDS011;10085;51.120;6.956;2022-12-05T20:09:48;11.85;;;7.03;;
19848;SDS011;10085;51.120;6.956;2022-12-05T20:14:52;12.40;;;6.68;;
19848;SDS011;10085;51.120;6.956;2022-12-05T20:19:56;10.32;;;6.00;;
19848;SDS011;10085;51.120;6.956;2022-12-05T20:25:00;10.50;;;6.35;;
19848;SDS011;10085;51.120;6.956;2022-12-05T20:30:05;10.75;;;6.43;;
19848;SDS011;10085;51.120;6.956;2022-12-05T20:35:09;12.43;;;6.55;;
19848;SDS011;10085;51.120;6.956;2022-12-05T20:40:11;13.02;;;5.90;;
19848;SDS011;10085;51.120;6.956;2022-12-05T20:45:15;10.27;;;5.82;;
19848;SDS011;10085;51.120;6.956;2022-12-05T20:50:18;9.75;;;6.40;;
19848;SDS011;10085;51.120;6.956;2022-12-05T20:55:21;10.82;;;6.18;;
19848;SDS011;10085;51.120;6.956;2022-12-05T21:00:25;8.93;;;5.70;;
19848;SDS011;10085;51.120;6.956;2022-12-05T21:05:28;9.88;;;5.88;;
19848;SDS011;10085;51.120;6.956;2022-12-05T21:10:30;8.93;;;5.60;;
19848;SDS011;10085;51.120;6.956;2022-12-05T21:15:35;10.98;;;5.75;;
19848;SDS011;10085;51.120;6.956;2022-12-05T21:20:38;11.48;;;5.72;;
19848;SDS011;10085;51.120;6.956;2022-12-05T21:25:42;10.15;;;5.40;;
19848;SDS011;10085;51.120;6.956;2022-12-05T21:30:46;9.30;;;5.63;;
19848;SDS011;10085;51.120;6.956;2022-12-05T21:35:52;14.60;;;6.18;;
19848;SDS011;10085;51.120;6.956;2022-12-05T21:40:55;10.93;;;5.70;;
19848;SDS011;10085;51.120;6.956;2022-12-05T21:45:59;9.43;;;5.50;;
19848;SDS011;10085;51.120;6.956;2022-12-05T21:51:03;10.48;;;5.50;;
19848;SDS011;10085;51.120;6.956;2022-12-05T21:56:08;10.73;;;6.20;;
19848;SDS011;10085;51.120;6.956;2022-12-05T22:01:16;9.93;;;5.80;;
19848;SDS011;10085;51.120;6.956;2022-12-05T22:06:20;8.38;;;5.35;;
19848;SDS011;10085;51.120;6.956;2022-12-05T22:11:23;10.55;;;5.47;;
19848;SDS011;10085;51.120;6.956;2022-12-05T22:16:27;9.93;;;5.43;;
19848;SDS011;10085;51.120;6.956;2022-12-05T22:21:33;8.38;;;5.70;;
19848;SDS011;10085;51.120;6.956;2022-12-05T22:26:36;9.55;;;5.45;;
19848;SDS011;10085;51.120;6.956;2022-12-05T22:31:40;9.63;;;5.57;;
19848;SDS011;10085;51.120;6.956;2022-12-05T22:36:43;9.93;;;5.55;;
19848;SDS011;10085;51.120;6.956;2022-12-05T22:41:46;9.55;;;5.50;;
19848;SDS011;10085;51.120;6.956;2022-12-05T22:46:50;8.00;;;4.75;;
19848;SDS011;10085;51.120;6.956;2022-12-05T22:51:53;9.10;;;5.07;;
19848;SDS011;10085;51.120;6.956;2022-12-05T22:56:56;9.60;;;5.90;;
19848;SDS011;10085;51.120;6.956;2022-12-05T23:02:00;8.95;;;5.63;;
19848;SDS011;10085;51.120;6.956;2022-12-05T23:07:03;10.98;;;5.30;;
19848;SDS011;10085;51.120;6.956;2022-12-05T23:12:06;9.95;;;5.30;;
19848;SDS011;10085;51.120;6.956;2022-12-05T23:17:10;8.82;;;5.22;;
19848;SDS011;10085;51.120;6.956;2022-12-05T23:22:13;9.68;;;5.18;;
19848;SDS011;10085;51.120;6.956;2022-12-05T23:27:16;8.57;;;4.95;;
19848;SDS011;10085;51.120;6.956;2022-12-05T23:32:21;8.73;;;5.28;;
19848;SDS011;10085;51.120;6.956;2022-12-05T23:37:23;7.97;;;5.10;;
19848;SDS011;10085;51.120;6.956;2022-12-05T23:42:26;9.23;;;5.10;;
19848;SDS011;10085;51.120;6.956;2022-12-05T23:47:31;9.88;;;5.20;;
19848;SDS011;10085;51.120;6.956;2022-12-05T23:52:34;9.75;;;5.13;;
19848;SDS011;10085;51.120;6.956;2022-12-05T23:57:37;9.57;;;5.45;;
